Time;durP1;ratioP1;P1;durP2;ratioP2;P2;SDS_P1;SDS_P2;PMS_P1;PMS_P2;Temp;Humidity;BMP_temperature;BMP_pressure;BME280_temperature;BME280_humidity;BME280_pressure;Samples;Min_cycle;Max_cycle;Signal;HPM_P1;HPM_P2
2021/04/17 00:01:42;;;;;;;;;;;;;;;27.77;24.07;101208.72;5098892;28;801;-38
2021/04/17 00:04:07;;;;;;;;;;;;;;;27.71;24.11;101208.41;5089281;28;1893;-38
2021/04/17 00:06:33;;;;;;;;;;;;;;;27.93;24.09;101207.78;5077826;28;806;-37
2021/04/17 00:08:58;;;;;;;;;;;;;;;27.91;23.88;101202.56;5078117;28;802;-35
2021/04/17 00:11:24;;;;;;;;;;;;;;;27.74;23.89;101205.34;5078304;28;748;-37
2021/04/17 00:13:49;;;;;;;;;;;;;;;27.77;24.53;101219.53;5078092;28;736;-36
2021/04/17 00:16:15;;;;;;;;;;;;;;;28.10;23.76;101206.69;5078362;28;1227;-38
2021/04/17 00:18:40;;;;;;;;;;;;;;;28.04;23.65;101198.47;5077552;28;962;-37
2021/04/17 00:21:05;;;;;;;;;;;;;;;27.75;24.09;101200.81;5077232;28;816;-36
2021/04/17 00:23:32;;;;;;;;;;;;;;;27.74;24.25;101199.94;5078387;28;1910;-35
2021/04/17 00:25:57;;;;;;;;;;;;;;;28.10;23.70;101200.44;5077766;28;882;-37
2021/04/17 00:28:23;;;;;;;;;;;;;;;28.05;23.77;101197.44;5077670;28;810;-36
2021/04/17 00:30:48;;;;;;;;;;;;;;;27.94;23.61;101201.38;5078267;28;763;-34
2021/04/17 00:33:13;;;;;;;;;;;;;;;27.71;23.84;101199.50;5077704;28;947;-36
2021/04/17 00:35:38;;;;;;;;;;;;;;;27.80;24.18;101189.47;5077616;28;881;-33
2021/04/17 00:38:04;;;;;;;;;;;;;;;27.97;24.19;101190.22;5077833;28;841;-37
2021/04/17 00:40:29;;;;;;;;;;;;;;;27.90;24.00;101192.78;5077773;28;938;-36
2021/04/17 00:42:54;;;;;;;;;;;;;;;27.70;23.82;101195.06;5077084;28;1910;-37
2021/04/17 00:45:19;;;;;;;;;;;;;;;27.82;24.49;101188.28;5077606;28;1653;-37
2021/04/17 00:47:45;;;;;;;;;;;;;;;28.04;23.91;101191.19;5097974;28;886;-33
2021/04/17 00:50:10;;;;;;;;;;;;;;;27.96;23.87;101191.25;5060251;28;1002;-35
2021/04/17 00:52:35;;;;;;;;;;;;;;;27.73;24.04;101187.47;5077932;28;773;-38
2021/04/17 00:55:01;;;;;;;;;;;;;;;27.94;23.94;101187.88;5077472;28;839;-37
2021/04/17 00:57:26;;;;;;;;;;;;;;;28.14;23.80;101177.44;5076948;28;752;-36
2021/04/17 00:59:51;;;;;;;;;;;;;;;28.03;23.87;101183.25;5077144;28;870;-37
2021/04/17 01:02:29;;;;;;;;;;;;;;;27.85;23.92;101173.56;5077108;28;842;-37
2021/04/17 01:04:55;;;;;;;;;;;;;;;27.77;24.33;101176.28;5077979;28;1901;-38
2021/04/17 01:07:21;;;;;;;;;;;;;;;28.13;23.89;101173.03;5097663;28;823;-37
2021/04/17 01:09:46;;;;;;;;;;;;;;;28.03;23.56;101177.84;5079630;28;790;-37
2021/04/17 01:12:15;;;;;;;;;;;;;;;27.79;23.90;101180.53;5097021;28;823;-38
2021/04/17 01:14:40;;;;;;;;;;;;;;;27.74;24.34;101180.22;5097380;28;1277;-38
2021/04/17 01:17:06;;;;;;;;;;;;;;;27.99;24.18;101178.19;5079216;28;763;-36
2021/04/17 01:19:38;;;;;;;;;;;;;;;27.90;23.81;101181.13;5084415;28;1037;-38
2021/04/17 01:22:03;;;;;;;;;;;;;;;27.68;24.05;101170.94;5077155;28;795;-38
2021/04/17 01:24:28;;;;;;;;;;;;;;;27.90;24.28;101170.31;5077194;28;1913;-38
2021/04/17 01:26:54;;;;;;;;;;;;;;;28.01;24.15;101172.59;5075295;28;827;-36
2021/04/17 01:29:19;;;;;;;;;;;;;;;28.01;23.62;101180.72;5075864;28;780;-37
2021/04/17 01:31:44;;;;;;;;;;;;;;;27.82;24.07;101176.59;5076741;28;827;-34
2021/04/17 01:34:09;;;;;;;;;;;;;;;27.77;24.31;101181.69;5074530;28;973;-37
2021/04/17 01:36:36;;;;;;;;;;;;;;;28.01;23.83;101182.59;5075733;28;735;-37
2021/04/17 01:39:08;;;;;;;;;;;;;;;28.08;23.80;101181.69;5075099;28;502;-36
2021/04/17 01:41:42;;;;;;;;;;;;;;;27.93;23.93;101181.63;5076509;28;745;-37
2021/04/17 01:44:08;;;;;;;;;;;;;;;27.69;23.91;101186.16;5074860;28;1914;-36
2021/04/17 01:46:35;;;;;;;;;;;;;;;27.96;23.79;101180.44;5085969;28;1579;-34
2021/04/17 01:49:02;;;;;;;;;;;;;;;28.04;23.93;101180.38;5095742;28;1018;-37
2021/04/17 01:51:27;;;;;;;;;;;;;;;27.95;23.81;101184.13;5096900;28;783;-37
2021/04/17 01:53:53;;;;;;;;;;;;;;;27.78;24.13;101191.50;5078762;28;740;-37
2021/04/17 01:56:19;;;;;;;;;;;;;;;27.87;24.26;101185.03;5078176;28;1347;-38
2021/04/17 01:58:44;;;;;;;;;;;;;;;28.03;23.56;101186.78;5079122;28;763;-36
2021/04/17 02:01:09;;;;;;;;;;;;;;;27.81;24.12;101185.75;5098523;28;746;-36
2021/04/17 02:03:36;;;;;;;;;;;;;;;27.77;24.36;101187.97;5095587;28;1913;-35
2021/04/17 02:06:01;;;;;;;;;;;;;;;28.20;23.67;101192.94;5080971;28;837;-37
2021/04/17 02:08:26;;;;;;;;;;;;;;;28.11;23.92;101186.75;5080545;28;856;-36
2021/04/17 02:10:52;;;;;;;;;;;;;;;28.01;23.66;101193.41;5080044;28;771;-35
2021/04/17 02:13:17;;;;;;;;;;;;;;;27.85;23.99;101195.19;5080742;28;746;-36
2021/04/17 02:15:43;;;;;;;;;;;;;;;27.95;24.14;101193.09;5080304;28;1235;-37
2021/04/17 02:18:27;;;;;;;;;;;;;;;28.14;24.06;101188.25;5079779;28;950;-37
2021/04/17 02:20:55;;;;;;;;;;;;;;;28.05;23.70;101183.91;5080772;28;799;-38
2021/04/17 02:23:21;;;;;;;;;;;;;;;27.84;24.10;101182.69;5079140;28;1914;-33
2021/04/17 02:25:46;;;;;;;;;;;;;;;27.90;24.37;101183.81;5078871;28;823;-36
2021/04/17 02:28:11;;;;;;;;;;;;;;;28.10;23.66;101176.94;5079902;28;977;-36
2021/04/17 02:30:37;;;;;;;;;;;;;;;28.05;24.29;101173.94;5080448;28;796;-36
2021/04/17 02:33:02;;;;;;;;;;;;;;;27.95;23.98;101181.44;5079829;28;739;-36
2021/04/17 02:35:27;;;;;;;;;;;;;;;27.70;24.22;101174.31;5078426;28;1285;-38
2021/04/17 02:37:53;;;;;;;;;;;;;;;27.87;24.65;101177.78;5079775;28;759;-33
2021/04/17 02:40:18;;;;;;;;;;;;;;;28.07;24.11;101171.91;5079534;28;846;-36
2021/04/17 02:42:43;;;;;;;;;;;;;;;27.87;23.97;101174.22;5080065;28;1965;-37
2021/04/17 02:45:09;;;;;;;;;;;;;;;27.73;24.67;101165.84;5079994;28;775;-37
2021/04/17 02:47:34;;;;;;;;;;;;;;;28.19;23.98;101169.63;5098469;28;1575;-36
2021/04/17 02:49:59;;;;;;;;;;;;;;;28.18;23.86;101165.22;5098766;28;1128;-37
2021/04/17 02:52:25;;;;;;;;;;;;;;;27.91;23.92;101164.72;5100193;28;802;-38
2021/04/17 02:54:50;;;;;;;;;;;;;;;27.76;24.56;101159.22;5099920;28;759;-38
2021/04/17 02:57:15;;;;;;;;;;;;;;;28.13;23.91;101155.97;5099375;28;850;-38
2021/04/17 02:59:40;;;;;;;;;;;;;;;28.23;23.92;101140.34;5100102;28;747;-37
2021/04/17 03:02:06;;;;;;;;;;;;;;;27.95;23.87;101147.13;5099808;28;766;-37
2021/04/17 03:04:31;;;;;;;;;;;;;;;27.75;24.18;101144.88;5086633;28;1966;-37
2021/04/17 03:06:56;;;;;;;;;;;;;;;27.96;24.13;101145.28;5079601;28;779;-35
2021/04/17 03:09:22;;;;;;;;;;;;;;;28.14;23.85;101144.13;5079322;28;772;-37
2021/04/17 03:11:47;;;;;;;;;;;;;;;27.85;24.30;101154.63;5078820;28;762;-38
2021/04/17 03:14:12;;;;;;;;;;;;;;;27.78;24.04;101148.25;5078994;28;1023;-38
2021/04/17 03:16:37;;;;;;;;;;;;;;;27.97;24.13;101136.13;5078940;28;748;-34
2021/04/17 03:19:03;;;;;;;;;;;;;;;28.17;23.68;101135.66;5078674;28;934;-37
2021/04/17 03:21:28;;;;;;;;;;;;;;;27.87;24.01;101144.47;5077777;28;1105;-37
2021/04/17 03:23:53;;;;;;;;;;;;;;;27.63;24.54;101149.81;5079009;28;1967;-38
2021/04/17 03:26:19;;;;;;;;;;;;;;;27.94;24.22;101147.31;5078998;28;740;-38
2021/04/17 03:28:44;;;;;;;;;;;;;;;28.02;24.36;101149.97;5078870;28;1469;-36
2021/04/17 03:31:09;;;;;;;;;;;;;;;27.90;24.20;101146.81;5079286;28;803;-34
2021/04/17 03:33:35;;;;;;;;;;;;;;;27.72;24.61;101155.22;5078375;28;947;-34
2021/04/17 03:36:00;;;;;;;;;;;;;;;27.90;24.61;101163.03;5079314;28;807;-37
2021/04/17 03:38:25;;;;;;;;;;;;;;;27.84;20.35;101152.94;5078883;28;902;-36
2021/04/17 03:40:50;;;;;;;;;;;;;;;27.30;20.28;101162.63;5079056;28;822;-34
2021/04/17 03:43:16;;;;;;;;;;;;;;;26.52;18.50;101156.69;5078477;28;1925;-39
2021/04/17 03:45:41;;;;;;;;;;;;;;;25.87;18.57;101159.09;5082047;28;1598;-38
2021/04/17 03:48:07;;;;;;;;;;;;;;;25.53;18.36;101176.97;5098420;28;994;-38
2021/04/17 03:50:32;;;;;;;;;;;;;;;25.36;18.82;101170.66;5078169;28;1054;-39
2021/04/17 03:52:57;;;;;;;;;;;;;;;24.30;20.10;101178.63;5085585;28;1357;-41
2021/04/17 03:55:22;;;;;;;;;;;;;;;24.27;19.83;101174.41;5098672;28;759;-40
2021/04/17 03:57:48;;;;;;;;;;;;;;;23.61;20.34;101179.84;5098848;28;748;-34
2021/04/17 04:00:14;;;;;;;;;;;;;;;22.79;20.67;101189.25;5098837;28;808;-41
2021/04/17 04:02:39;;;;;;;;;;;;;;;23.18;20.11;101187.47;5079978;28;1901;-41
2021/04/17 04:05:05;;;;;;;;;;;;;;;23.37;19.82;101186.59;5081384;28;946;-38
2021/04/17 04:07:30;;;;;;;;;;;;;;;23.27;19.91;101193.81;5078463;28;763;-39
2021/04/17 04:09:56;;;;;;;;;;;;;;;23.16;20.24;101186.75;5078316;28;718;-39
2021/04/17 04:12:21;;;;;;;;;;;;;;;23.22;20.30;101188.88;5078321;28;751;-45
2021/04/17 04:14:46;;;;;;;;;;;;;;;23.02;20.30;101193.44;5078372;28;1079;-39
2021/04/17 04:17:12;;;;;;;;;;;;;;;23.06;20.22;101193.00;5072307;28;1216;-31
2021/04/17 04:19:37;;;;;;;;;;;;;;;22.95;20.23;101185.13;5076571;28;883;-30
2021/04/17 04:22:02;;;;;;;;;;;;;;;22.63;20.68;101181.78;5078254;28;803;-40
2021/04/17 04:24:27;;;;;;;;;;;;;;;22.71;20.44;101176.56;5095200;28;1909;-40
2021/04/17 04:26:53;;;;;;;;;;;;;;;22.81;20.14;101181.91;5094038;28;940;-30
2021/04/17 04:29:18;;;;;;;;;;;;;;;22.79;20.06;101185.72;5097731;28;801;-40
2021/04/17 04:31:43;;;;;;;;;;;;;;;22.82;19.99;101172.84;5091874;28;943;-40
2021/04/17 04:34:09;;;;;;;;;;;;;;;22.64;20.11;101162.00;5077867;28;852;-34
2021/04/17 04:36:34;;;;;;;;;;;;;;;22.38;20.08;101159.88;5077526;28;1187;-36
2021/04/17 04:38:59;;;;;;;;;;;;;;;22.37;20.19;101164.38;5077698;28;843;-32
2021/04/17 04:41:24;;;;;;;;;;;;;;;22.38;20.96;101165.25;5077826;28;744;-37
2021/04/17 04:43:50;;;;;;;;;;;;;;;22.30;21.95;101162.41;5077451;28;1914;-33
2021/04/17 04:46:15;;;;;;;;;;;;;;;22.11;22.86;101162.25;5083850;28;1563;-33
2021/04/17 04:48:40;;;;;;;;;;;;;;;21.99;23.75;101158.00;5077595;28;825;-41
2021/04/17 04:51:05;;;;;;;;;;;;;;;20.93;25.39;101167.97;5077659;28;851;-44
2021/04/17 04:53:31;;;;;;;;;;;;;;;21.28;25.38;101176.63;5077549;28;787;-41
2021/04/17 04:55:56;;;;;;;;;;;;;;;22.37;24.14;101176.97;5077680;28;748;-40
2021/04/17 04:58:21;;;;;;;;;;;;;;;24.13;21.72;101181.13;5077284;28;705;-33
2021/04/17 05:00:47;;;;;;;;;;;;;;;23.15;22.44;101183.25;5076650;28;809;-28
2021/04/17 05:03:12;;;;;;;;;;;;;;;22.78;22.45;101182.19;5095165;28;1909;-43
2021/04/17 05:05:37;;;;;;;;;;;;;;;23.44;21.63;101184.19;5097617;28;799;-29
2021/04/17 05:08:03;;;;;;;;;;;;;;;23.62;21.31;101173.50;5097567;28;846;-29
2021/04/17 05:10:28;;;;;;;;;;;;;;;23.51;21.45;101171.84;5097304;28;815;-41
2021/04/17 05:12:53;;;;;;;;;;;;;;;23.74;20.80;101176.81;5081802;28;1096;-28
2021/04/17 05:15:19;;;;;;;;;;;;;;;23.54;21.14;101174.22;5077130;28;1179;-30
2021/04/17 05:17:44;;;;;;;;;;;;;;;24.08;20.51;101173.50;5090992;28;967;-41
2021/04/17 05:20:09;;;;;;;;;;;;;;;24.07;20.81;101174.50;5097244;28;728;-26
2021/04/17 05:22:35;;;;;;;;;;;;;;;24.07;20.88;101173.66;5097474;28;784;-38
2021/04/17 05:25:00;;;;;;;;;;;;;;;24.20;21.00;101184.06;5097168;28;1985;-37
2021/04/17 05:27:25;;;;;;;;;;;;;;;24.95;20.49;101184.72;5096776;28;826;-34
2021/04/17 05:29:51;;;;;;;;;;;;;;;25.91;19.16;101190.09;5097371;28;923;-31
2021/04/17 05:32:16;;;;;;;;;;;;;;;26.35;18.81;101190.03;5086658;28;951;-27
2021/04/17 05:34:41;;;;;;;;;;;;;;;26.62;18.75;101196.97;5075124;28;831;-28
2021/04/17 05:37:06;;;;;;;;;;;;;;;25.96;19.21;101197.69;5076765;28;831;-26
2021/04/17 05:39:32;;;;;;;;;;;;;;;25.74;19.57;101202.66;5076957;28;870;-27
2021/04/17 05:41:57;;;;;;;;;;;;;;;25.67;20.76;101205.16;5076830;28;890;-27
2021/04/17 05:44:22;;;;;;;;;;;;;;;25.34;21.79;101214.91;5077094;28;1961;-26
2021/04/17 05:46:48;;;;;;;;;;;;;;;25.85;20.86;101204.22;5076636;28;1605;-28
2021/04/17 05:49:13;;;;;;;;;;;;;;;25.41;22.12;101194.41;5076173;28;844;-29
2021/04/17 05:51:39;;;;;;;;;;;;;;;25.26;22.70;101197.69;5089272;28;1189;-37
2021/04/17 05:54:05;;;;;;;;;;;;;;;25.16;22.79;101202.34;5078659;28;824;-26
2021/04/17 05:56:30;;;;;;;;;;;;;;;25.15;22.87;101209.59;5096781;28;798;-25
2021/04/17 05:58:55;;;;;;;;;;;;;;;25.16;22.99;101203.19;5096689;28;882;-27
2021/04/17 06:01:20;;;;;;;;;;;;;;;25.29;23.02;101201.94;5093760;28;1343;-32
2021/04/17 06:03:46;;;;;;;;;;;;;;;25.25;23.14;101211.31;5076892;28;1901;-33
2021/04/17 06:06:11;;;;;;;;;;;;;;;25.25;23.06;101205.94;5090402;28;982;-44
2021/04/17 06:08:37;;;;;;;;;;;;;;;25.23;23.38;101198.03;5116337;28;920;-45
2021/04/17 06:11:05;;;;;;;;;;;;;;;25.19;23.62;101199.34;5116355;28;851;-44
2021/04/17 06:13:30;;;;;;;;;;;;;;;25.24;23.48;101199.69;5076792;28;864;-31
2021/04/17 06:15:56;;;;;;;;;;;;;;;25.26;23.53;101189.63;5057895;28;1068;-35
2021/04/17 06:18:21;;;;;;;;;;;;;;;25.17;23.76;101186.03;5095397;28;1002;-42
2021/04/17 06:20:46;;;;;;;;;;;;;;;25.28;23.71;101184.94;5096767;28;811;-40
2021/04/17 06:23:12;;;;;;;;;;;;;;;25.30;23.89;101179.38;5097038;28;1917;-34
2021/04/17 06:25:37;;;;;;;;;;;;;;;25.25;23.95;101182.56;5096746;28;751;-36
2021/04/17 06:28:02;;;;;;;;;;;;;;;25.40;23.85;101182.81;5096359;28;875;-33
2021/04/17 06:30:27;;;;;;;;;;;;;;;25.47;23.75;101188.41;5096658;28;792;-34
2021/04/17 06:32:53;;;;;;;;;;;;;;;25.50;23.71;101187.22;5078697;28;1367;-29
2021/04/17 06:35:18;;;;;;;;;;;;;;;25.53;23.72;101195.81;5095744;28;812;-42
2021/04/17 06:37:43;;;;;;;;;;;;;;;25.32;24.13;101190.84;5096459;28;842;-34
2021/04/17 06:40:09;;;;;;;;;;;;;;;25.44;23.85;101189.53;5096614;28;744;-39
2021/04/17 06:42:35;;;;;;;;;;;;;;;25.54;23.77;101194.00;5096656;28;755;-42
2021/04/17 06:45:00;;;;;;;;;;;;;;;25.55;24.00;101198.34;5096791;28;1902;-37
2021/04/17 06:47:26;;;;;;;;;;;;;;;25.56;23.90;101200.88;5091622;28;1574;-41
2021/04/17 06:49:51;;;;;;;;;;;;;;;25.58;24.08;101197.19;5100020;28;828;-39
2021/04/17 06:52:16;;;;;;;;;;;;;;;25.60;24.08;101200.56;5081884;28;833;-28
2021/04/17 06:54:45;;;;;;;;;;;;;;;25.55;24.30;101201.91;5100622;28;779;-30
2021/04/17 06:57:10;;;;;;;;;;;;;;;25.47;24.58;101203.69;5100222;28;813;-37
2021/04/17 06:59:35;;;;;;;;;;;;;;;25.49;24.45;101205.22;5100186;28;878;-33
2021/04/17 07:02:01;;;;;;;;;;;;;;;25.59;24.24;101209.66;5091851;28;1002;-30
2021/04/17 07:04:26;;;;;;;;;;;;;;;25.72;24.21;101210.09;5079524;28;1889;-32
2021/04/17 07:06:52;;;;;;;;;;;;;;;25.74;24.17;101212.63;5079688;28;814;-30
2021/04/17 07:09:19;;;;;;;;;;;;;;;25.62;24.50;101218.28;5079709;28;870;-33
2021/04/17 07:11:44;;;;;;;;;;;;;;;25.63;24.22;101211.91;5085266;28;1072;-31
2021/04/17 07:14:14;;;;;;;;;;;;;;;25.61;24.41;101215.75;5099731;28;1196;-28
2021/04/17 07:16:55;;;;;;;;;;;;;;;25.56;24.49;101219.75;5093972;28;978;-37
2021/04/17 07:19:21;;;;;;;;;;;;;;;25.71;24.37;101223.72;5079229;28;1523;-41
2021/04/17 07:21:47;;;;;;;;;;;;;;;25.70;24.33;101222.00;5079772;28;854;-41
2021/04/17 07:24:22;;;;;;;;;;;;;;;25.69;24.28;101215.81;5079074;28;1918;-41
2021/04/17 07:26:47;;;;;;;;;;;;;;;25.80;24.26;101211.97;5079402;28;791;-31
2021/04/17 07:29:15;;;;;;;;;;;;;;;25.67;24.38;101210.53;5077484;28;915;-35
2021/04/17 07:31:47;;;;;;;;;;;;;;;25.68;24.40;101209.56;5078586;28;997;-28
2021/04/17 07:34:17;;;;;;;;;;;;;;;25.66;24.50;101211.56;5079243;28;882;-34
2021/04/17 07:36:48;;;;;;;;;;;;;;;25.75;24.44;101207.06;5079069;28;730;-33
2021/04/17 07:39:32;;;;;;;;;;;;;;;25.76;24.54;101199.81;5079092;28;847;-31
2021/04/17 07:42:01;;;;;;;;;;;;;;;25.75;24.51;101201.69;5079198;28;767;-29
2021/04/17 07:44:30;;;;;;;;;;;;;;;25.75;24.53;101200.81;5078771;28;1961;-30
2021/04/17 07:46:55;;;;;;;;;;;;;;;25.64;24.62;101194.72;5084906;28;1554;-28
2021/04/17 07:49:25;;;;;;;;;;;;;;;25.56;24.49;101191.94;5078881;28;762;-28
2021/04/17 07:51:58;;;;;;;;;;;;;;;25.73;24.39;101187.50;5078370;28;819;-31
2021/04/17 07:54:23;;;;;;;;;;;;;;;25.71;24.57;101178.75;5079246;28;767;-42
2021/04/17 07:56:48;;;;;;;;;;;;;;;25.63;24.78;101181.41;5078761;28;831;-29
2021/04/17 07:59:14;;;;;;;;;;;;;;;25.67;24.65;101180.09;5078026;28;751;-29
2021/04/17 08:01:39;;;;;;;;;;;;;;;25.83;24.57;101171.19;5065804;28;948;-41
2021/04/17 08:04:04;;;;;;;;;;;;;;;25.74;24.57;101167.63;5080277;28;1957;-34
2021/04/17 08:06:30;;;;;;;;;;;;;;;25.75;24.72;101166.66;5080585;28;1315;-31
2021/04/17 08:08:56;;;;;;;;;;;;;;;25.89;24.79;101159.75;5099225;28;782;-27
2021/04/17 08:11:22;;;;;;;;;;;;;;;25.42;23.97;101147.63;5095635;28;1075;-30
2021/04/17 08:13:48;;;;;;;;;;;;;;;25.34;24.54;101143.03;5084881;28;1098;-42
2021/04/17 08:16:13;;;;;;;;;;;;;;;25.54;24.48;101145.50;5095354;28;1305;-28
2021/04/17 08:18:38;;;;;;;;;;;;;;;25.43;24.26;101146.63;5114041;28;824;-29
2021/04/17 08:21:05;;;;;;;;;;;;;;;25.28;24.43;101143.69;5119062;28;767;-32
2021/04/17 08:23:30;;;;;;;;;;;;;;;25.29;24.20;101151.59;5098083;28;1906;-34
2021/04/17 08:25:55;;;;;;;;;;;;;;;25.21;24.28;101159.63;5067975;28;1133;-36
2021/04/17 08:28:21;;;;;;;;;;;;;;;25.06;24.21;101141.41;5065732;28;860;-30
2021/04/17 08:30:47;;;;;;;;;;;;;;;25.04;24.08;101147.94;5078195;28;811;-32
2021/04/17 08:33:21;;;;;;;;;;;;;;;25.13;24.04;101146.13;5082821;28;990;-34
2021/04/17 08:35:46;;;;;;;;;;;;;;;25.07;24.03;101134.19;5085309;28;893;-43
2021/04/17 08:38:12;;;;;;;;;;;;;;;24.96;24.43;101146.03;5078101;28;832;-31
2021/04/17 08:40:38;;;;;;;;;;;;;;;24.84;24.45;101131.97;5077780;28;779;-31
2021/04/17 08:43:09;;;;;;;;;;;;;;;24.85;24.42;101139.06;5077878;28;1905;-32
2021/04/17 08:45:35;;;;;;;;;;;;;;;24.95;24.19;101133.59;5077655;28;1523;-37
2021/04/17 08:48:00;;;;;;;;;;;;;;;24.94;24.13;101138.13;5077342;28;951;-40
2021/04/17 08:50:29;;;;;;;;;;;;;;;24.80;24.23;101138.69;5077540;28;905;-33
2021/04/17 08:52:55;;;;;;;;;;;;;;;24.74;24.18;101136.63;5077560;28;751;-32
2021/04/17 08:55:20;;;;;;;;;;;;;;;24.65;24.32;101135.72;5077726;28;794;-29
2021/04/17 08:57:45;;;;;;;;;;;;;;;24.74;23.98;101129.38;5077031;28;958;-34
2021/04/17 09:00:11;;;;;;;;;;;;;;;24.80;23.84;101134.16;5075467;28;992;-33
2021/04/17 09:02:46;;;;;;;;;;;;;;;24.81;23.88;101133.13;5076986;28;997;-37
2021/04/17 09:05:13;;;;;;;;;;;;;;;24.75;23.86;101125.69;5077007;28;1909;-38
2021/04/17 09:07:44;;;;;;;;;;;;;;;24.68;23.99;101127.31;5077574;28;764;-43
2021/04/17 09:10:28;;;;;;;;;;;;;;;24.66;24.18;101118.56;5076904;28;828;-45
2021/04/17 09:13:09;;;;;;;;;;;;;;;24.97;24.32;101126.22;5076459;28;1047;-28
2021/04/17 09:15:50;;;;;;;;;;;;;;;25.10;24.61;101119.53;5060550;28;1275;-31
2021/04/17 09:18:37;;;;;;;;;;;;;;;25.33;24.29;101127.91;5084756;28;1131;-42
2021/04/17 09:21:09;;;;;;;;;;;;;;;25.31;24.41;101124.50;5087560;28;1186;-30
2021/04/17 09:23:42;;;;;;;;;;;;;;;25.30;24.48;101120.13;5085767;28;1973;-31
2021/04/17 09:26:08;;;;;;;;;;;;;;;25.28;24.48;101138.31;5085930;28;1328;-30
2021/04/17 09:28:36;;;;;;;;;;;;;;;25.28;24.61;101125.69;5087071;28;1186;-30
2021/04/17 09:31:02;;;;;;;;;;;;;;;25.24;24.65;101124.31;5091535;28;1209;-30
2021/04/17 09:33:28;;;;;;;;;;;;;;;25.20;24.90;101122.97;5076827;28;1518;-30
2021/04/17 09:35:53;;;;;;;;;;;;;;;25.38;24.71;101122.88;5076911;28;791;-40
2021/04/17 09:38:18;;;;;;;;;;;;;;;25.31;24.84;101132.59;5076990;28;783;-42
2021/04/17 09:40:45;;;;;;;;;;;;;;;25.26;24.83;101129.53;5076460;28;820;-35
2021/04/17 09:43:22;;;;;;;;;;;;;;;25.34;24.77;101131.44;5096359;28;1948;-31
2021/04/17 09:45:50;;;;;;;;;;;;;;;25.41;24.62;101133.31;5092791;28;1550;-32
2021/04/17 09:48:15;;;;;;;;;;;;;;;25.40;24.67;101131.63;5094721;28;951;-35
2021/04/17 09:50:41;;;;;;;;;;;;;;;25.39;24.70;101121.84;5097156;28;754;-27
2021/04/17 09:53:10;;;;;;;;;;;;;;;25.48;24.74;101128.13;5097029;28;818;-29
2021/04/17 09:55:52;;;;;;;;;;;;;;;25.42;24.83;101118.00;5096829;28;735;-29
2021/04/17 09:58:24;;;;;;;;;;;;;;;25.37;24.90;101113.13;5096857;28;775;-29
2021/04/17 10:00:49;;;;;;;;;;;;;;;25.49;24.88;101104.75;5096884;28;834;-28
2021/04/17 10:03:24;;;;;;;;;;;;;;;25.60;24.89;101104.44;5078102;28;1967;-28
2021/04/17 10:05:49;;;;;;;;;;;;;;;25.54;24.89;101103.22;5076453;28;814;-28
2021/04/17 10:08:24;;;;;;;;;;;;;;;25.61;25.04;101095.31;5076998;28;826;-35
2021/04/17 10:10:49;;;;;;;;;;;;;;;25.55;25.37;101099.53;5076508;28;731;-33
2021/04/17 10:13:15;;;;;;;;;;;;;;;25.55;25.37;101096.00;5094656;28;1092;-29
2021/04/17 10:15:41;;;;;;;;;;;;;;;25.52;25.37;101104.41;5096174;28;1183;-31
2021/04/17 10:18:07;;;;;;;;;;;;;;;25.62;25.29;101101.56;5061104;28;1373;-28
2021/04/17 10:20:33;;;;;;;;;;;;;;;25.75;24.92;101093.03;5075450;28;859;-41
2021/04/17 10:22:59;;;;;;;;;;;;;;;25.60;25.20;101095.50;5079430;28;1910;-37
2021/04/17 10:25:37;;;;;;;;;;;;;;;25.66;25.25;101087.63;5079817;28;902;-28
2021/04/17 10:28:20;;;;;;;;;;;;;;;25.51;25.68;101086.53;5080500;28;747;-29
2021/04/17 10:30:46;;;;;;;;;;;;;;;25.58;25.61;101087.56;5079755;28;894;-29
2021/04/17 10:33:29;;;;;;;;;;;;;;;25.67;25.60;101086.59;5080417;28;989;-40
2021/04/17 10:35:55;;;;;;;;;;;;;;;25.64;25.96;101089.63;5079570;28;870;-31
2021/04/17 10:38:24;;;;;;;;;;;;;;;25.74;25.87;101091.38;5079899;28;895;-31
2021/04/17 10:40:49;;;;;;;;;;;;;;;25.88;25.79;101096.09;5085345;28;836;-40
2021/04/17 10:43:17;;;;;;;;;;;;;;;25.85;25.89;101098.28;5119352;28;1957;-30
2021/04/17 10:45:43;;;;;;;;;;;;;;;25.65;26.03;101093.19;5113460;28;1522;-28
2021/04/17 10:48:10;;;;;;;;;;;;;;;25.75;26.04;101099.28;5079976;28;1021;-27
2021/04/17 10:50:39;;;;;;;;;;;;;;;25.79;25.87;101089.84;5087438;28;806;-32
2021/04/17 10:53:05;;;;;;;;;;;;;;;25.99;25.75;101094.91;5100207;28;787;-28
2021/04/17 10:55:44;;;;;;;;;;;;;;;26.17;25.64;101100.16;5093370;28;866;-39
2021/04/17 10:58:21;;;;;;;;;;;;;;;26.17;25.58;101096.63;5079874;28;813;-30
2021/04/17 11:00:51;;;;;;;;;;;;;;;26.45;25.15;101090.91;5080274;28;752;-26
2021/04/17 11:03:17;;;;;;;;;;;;;;;26.39;25.13;101089.72;5079483;28;1898;-28
2021/04/17 11:05:44;;;;;;;;;;;;;;;26.22;25.50;101088.88;5079264;28;835;-27
2021/04/17 11:08:09;;;;;;;;;;;;;;;26.10;25.81;101074.03;5078525;28;779;-27
2021/04/17 11:10:36;;;;;;;;;;;;;;;26.00;25.99;101077.75;5080005;28;823;-31
2021/04/17 11:13:04;;;;;;;;;;;;;;;26.00;25.97;101075.06;5095824;28;1100;-29
2021/04/17 11:15:29;;;;;;;;;;;;;;;25.90;25.95;101077.91;5100030;28;1323;-27
2021/04/17 11:18:09;;;;;;;;;;;;;;;25.90;26.16;101069.81;5083437;28;977;-27
2021/04/17 11:20:53;;;;;;;;;;;;;;;25.96;26.14;101064.78;5079330;28;822;-34
2021/04/17 11:23:37;;;;;;;;;;;;;;;26.00;26.29;101063.41;5079094;28;1960;-28
2021/04/17 11:26:18;;;;;;;;;;;;;;;26.06;26.09;101046.56;5079150;28;851;-30
2021/04/17 11:28:45;;;;;;;;;;;;;;;26.32;25.78;101052.81;5079612;28;743;-30
2021/04/17 11:31:10;;;;;;;;;;;;;;;26.43;25.84;101044.38;5079130;28;974;-32
2021/04/17 11:33:35;;;;;;;;;;;;;;;25.84;23.45;101043.53;5078091;28;814;-30
2021/04/17 11:36:01;;;;;;;;;;;;;;;25.70;23.38;101033.41;5079230;28;775;-29
2021/04/17 11:38:27;;;;;;;;;;;;;;;25.60;23.27;101034.38;5079268;28;826;-28
2021/04/17 11:40:52;;;;;;;;;;;;;;;25.36;23.18;101027.09;5079202;28;815;-28
2021/04/17 11:43:18;;;;;;;;;;;;;;;25.17;23.44;101024.50;5079044;28;1903;-27
2021/04/17 11:45:43;;;;;;;;;;;;;;;25.14;23.42;101018.63;5082484;28;1519;-26
2021/04/17 11:48:08;;;;;;;;;;;;;;;25.01;23.03;101011.84;5080999;28;1025;-25
2021/04/17 11:50:34;;;;;;;;;;;;;;;24.83;23.22;101009.22;5078928;28;726;-27
2021/04/17 11:52:59;;;;;;;;;;;;;;;24.69;22.78;100999.91;5079120;28;747;-27
2021/04/17 11:55:25;;;;;;;;;;;;;;;24.60;23.11;100998.16;5078734;28;716;-41
2021/04/17 11:57:50;;;;;;;;;;;;;;;24.64;23.12;100994.16;5078968;28;720;-28
2021/04/17 12:00:16;;;;;;;;;;;;;;;24.85;23.33;100987.53;5078983;28;764;-27
2021/04/17 12:02:41;;;;;;;;;;;;;;;24.81;23.25;100981.63;5092272;28;948;-28
2021/04/17 12:05:07;;;;;;;;;;;;;;;24.77;22.61;100975.75;5098885;28;1901;-28
2021/04/17 12:07:32;;;;;;;;;;;;;;;24.89;22.60;100972.75;5098628;28;716;-28
2021/04/17 12:09:57;;;;;;;;;;;;;;;25.00;22.19;100969.78;5098805;28;810;-30
2021/04/17 12:12:24;;;;;;;;;;;;;;;24.84;22.21;100965.13;5087694;28;1198;-28
2021/04/17 12:14:49;;;;;;;;;;;;;;;24.89;22.32;100962.81;5078330;28;1071;-29
2021/04/17 12:17:15;;;;;;;;;;;;;;;24.93;22.25;100964.22;5087928;28;1026;-28
2021/04/17 12:19:40;;;;;;;;;;;;;;;24.99;22.13;100953.81;5098618;28;779;-29
2021/04/17 12:22:05;;;;;;;;;;;;;;;24.96;22.59;100949.56;5097749;28;838;-38
2021/04/17 12:24:30;;;;;;;;;;;;;;;24.83;21.76;100950.88;5098181;28;1922;-32
2021/04/17 12:26:56;;;;;;;;;;;;;;;24.63;22.10;100947.59;5098431;28;790;-30
2021/04/17 12:29:21;;;;;;;;;;;;;;;24.74;22.00;100957.19;5082102;28;828;-36
2021/04/17 12:31:47;;;;;;;;;;;;;;;24.81;22.15;100952.88;5078070;28;800;-37
2021/04/17 12:34:12;;;;;;;;;;;;;;;24.47;22.36;100942.97;5077976;28;794;-30
2021/04/17 12:36:37;;;;;;;;;;;;;;;24.72;21.95;100942.25;5077909;28;791;-29
2021/04/17 12:39:03;;;;;;;;;;;;;;;24.77;21.93;100940.75;5078071;28;760;-27
2021/04/17 12:41:28;;;;;;;;;;;;;;;24.58;21.55;100936.47;5083580;28;839;-39
2021/04/17 12:43:54;;;;;;;;;;;;;;;24.62;21.68;100932.47;5102112;28;1958;-33
2021/04/17 12:46:19;;;;;;;;;;;;;;;24.58;22.02;100931.09;5100599;28;1534;-43
2021/04/17 12:48:44;;;;;;;;;;;;;;;24.57;21.80;100937.47;5077981;28;748;-29
2021/04/17 12:51:09;;;;;;;;;;;;;;;24.53;21.93;100928.88;5077620;28;874;-31